sensor_id;sensor_type;location;lat;lon;timestamp;P1;durP1;ratioP1;P2;durP2;ratioP2
67352;SDS011;54238;52.278;21.056;2022-12-20T00:01:39;35.80;;;16.90;;
67352;SDS011;54238;52.278;21.056;2022-12-20T00:04:09;43.20;;;17.30;;
67352;SDS011;54238;52.278;21.056;2022-12-20T00:06:39;41.10;;;16.60;;
67352;SDS011;54238;52.278;21.056;2022-12-20T00:09:10;55.30;;;23.00;;
67352;SDS011;54238;52.278;21.056;2022-12-20T00:11:40;49.70;;;20.60;;
67352;SDS011;54238;52.278;21.056;2022-12-20T00:14:08;56.70;;;22.50;;
67352;SDS011;54238;52.278;21.056;2022-12-20T00:16:38;51.50;;;22.60;;
67352;SDS011;54238;52.278;21.056;2022-12-20T00:19:09;40.70;;;16.80;;
67352;SDS011;54238;52.278;21.056;2022-12-20T00:21:39;55.50;;;21.70;;
67352;SDS011;54238;52.278;21.056;2022-12-20T00:24:06;52.30;;;21.70;;
67352;SDS011;54238;52.278;21.056;2022-12-20T00:26:36;43.20;;;19.40;;
67352;SDS011;54238;52.278;21.056;2022-12-20T00:29:06;49.30;;;19.30;;
67352;SDS011;54238;52.278;21.056;2022-12-20T00:31:36;67.40;;;24.50;;
67352;SDS011;54238;52.278;21.056;2022-12-20T00:34:06;40.90;;;17.30;;
67352;SDS011;54238;52.278;21.056;2022-12-20T00:36:35;55.40;;;21.20;;
67352;SDS011;54238;52.278;21.056;2022-12-20T00:39:05;48.30;;;20.30;;
67352;SDS011;54238;52.278;21.056;2022-12-20T00:41:33;44.80;;;20.20;;
67352;SDS011;54238;52.278;21.056;2022-12-20T00:44:05;35.00;;;15.60;;
67352;SDS011;54238;52.278;21.056;2022-12-20T00:46:37;52.90;;;21.20;;
67352;SDS011;54238;52.278;21.056;2022-12-20T00:49:09;58.00;;;24.10;;
67352;SDS011;54238;52.278;21.056;2022-12-20T00:51:37;50.00;;;21.90;;
67352;SDS011;54238;52.278;21.056;2022-12-20T00:54:07;61.80;;;23.40;;
67352;SDS011;54238;52.278;21.056;2022-12-20T00:56:36;53.00;;;23.10;;
67352;SDS011;54238;52.278;21.056;2022-12-20T00:59:06;52.30;;;22.00;;
67352;SDS011;54238;52.278;21.056;2022-12-20T01:01:36;41.60;;;18.90;;
67352;SDS011;54238;52.278;21.056;2022-12-20T01:04:08;37.30;;;17.50;;
67352;SDS011;54238;52.278;21.056;2022-12-20T01:06:38;38.50;;;17.30;;
67352;SDS011;54238;52.278;21.056;2022-12-20T01:09:12;53.90;;;22.00;;
67352;SDS011;54238;52.278;21.056;2022-12-20T01:11:39;57.80;;;23.50;;
67352;SDS011;54238;52.278;21.056;2022-12-20T01:14:12;48.20;;;22.20;;
67352;SDS011;54238;52.278;21.056;2022-12-20T01:16:48;51.00;;;22.00;;
67352;SDS011;54238;52.278;21.056;2022-12-20T01:19:16;58.30;;;23.60;;
67352;SDS011;54238;52.278;21.056;2022-12-20T01:21:44;52.30;;;23.10;;
67352;SDS011;54238;52.278;21.056;2022-12-20T01:24:16;48.30;;;23.00;;
67352;SDS011;54238;52.278;21.056;2022-12-20T01:26:47;47.30;;;22.50;;
67352;SDS011;54238;52.278;21.056;2022-12-20T01:29:15;52.70;;;20.80;;
67352;SDS011;54238;52.278;21.056;2022-12-20T01:31:44;48.80;;;23.00;;
67352;SDS011;54238;52.278;21.056;2022-12-20T01:34:11;45.90;;;20.00;;
67352;SDS011;54238;52.278;21.056;2022-12-20T01:36:41;54.70;;;24.10;;
67352;SDS011;54238;52.278;21.056;2022-12-20T01:39:14;52.20;;;22.40;;
67352;SDS011;54238;52.278;21.056;2022-12-20T01:41:45;45.50;;;20.70;;
67352;SDS011;54238;52.278;21.056;2022-12-20T01:46:47;50.60;;;23.20;;
67352;SDS011;54238;52.278;21.056;2022-12-20T01:54:40;47.90;;;20.30;;
67352;SDS011;54238;52.278;21.056;2022-12-20T01:57:15;44.20;;;21.50;;
67352;SDS011;54238;52.278;21.056;2022-12-20T01:59:47;49.10;;;22.50;;
67352;SDS011;54238;52.278;21.056;2022-12-20T02:02:19;53.40;;;21.40;;
67352;SDS011;54238;52.278;21.056;2022-12-20T02:04:49;42.40;;;19.00;;
67352;SDS011;54238;52.278;21.056;2022-12-20T02:07:22;47.20;;;19.10;;
67352;SDS011;54238;52.278;21.056;2022-12-20T02:09:56;37.20;;;17.40;;
67352;SDS011;54238;52.278;21.056;2022-12-20T02:12:38;37.90;;;16.00;;
67352;SDS011;54238;52.278;21.056;2022-12-20T02:32:43;37.40;;;17.60;;
67352;SDS011;54238;52.278;21.056;2022-12-20T02:35:28;34.90;;;15.40;;
67352;SDS011;54238;52.278;21.056;2022-12-20T02:38:03;49.00;;;19.50;;
67352;SDS011;54238;52.278;21.056;2022-12-20T02:40:55;44.20;;;21.20;;
67352;SDS011;54238;52.278;21.056;2022-12-20T02:43:32;38.20;;;19.40;;
67352;SDS011;54238;52.278;21.056;2022-12-20T02:46:23;34.10;;;16.60;;
67352;SDS011;54238;52.278;21.056;2022-12-20T02:48:57;44.70;;;19.40;;
67352;SDS011;54238;52.278;21.056;2022-12-20T02:51:29;40.50;;;18.20;;
67352;SDS011;54238;52.278;21.056;2022-12-20T02:54:03;45.20;;;18.70;;
67352;SDS011;54238;52.278;21.056;2022-12-20T02:56:53;31.90;;;14.60;;
67352;SDS011;54238;52.278;21.056;2022-12-20T02:59:34;43.80;;;19.00;;
67352;SDS011;54238;52.278;21.056;2022-12-20T03:02:10;30.50;;;14.40;;
67352;SDS011;54238;52.278;21.056;2022-12-20T03:04:38;40.40;;;18.20;;
67352;SDS011;54238;52.278;21.056;2022-12-20T03:07:12;45.30;;;19.10;;
67352;SDS011;54238;52.278;21.056;2022-12-20T03:09:45;41.90;;;19.30;;
67352;SDS011;54238;52.278;21.056;2022-12-20T03:12:14;43.50;;;19.80;;
67352;SDS011;54238;52.278;21.056;2022-12-20T03:14:44;43.10;;;18.10;;
67352;SDS011;54238;52.278;21.056;2022-12-20T03:17:13;34.20;;;17.50;;
67352;SDS011;54238;52.278;21.056;2022-12-20T03:19:46;41.30;;;18.70;;
67352;SDS011;54238;52.278;21.056;2022-12-20T03:22:13;31.80;;;14.90;;
67352;SDS011;54238;52.278;21.056;2022-12-20T03:24:44;39.40;;;17.60;;
67352;SDS011;54238;52.278;21.056;2022-12-20T03:27:14;38.20;;;16.40;;
67352;SDS011;54238;52.278;21.056;2022-12-20T03:29:44;25.90;;;12.10;;
67352;SDS011;54238;52.278;21.056;2022-12-20T03:32:14;35.20;;;17.10;;
67352;SDS011;54238;52.278;21.056;2022-12-20T03:34:41;34.10;;;18.60;;
67352;SDS011;54238;52.278;21.056;2022-12-20T03:37:18;33.00;;;17.60;;
67352;SDS011;54238;52.278;21.056;2022-12-20T03:39:45;34.70;;;16.30;;
67352;SDS011;54238;52.278;21.056;2022-12-20T03:42:12;31.90;;;16.10;;
67352;SDS011;54238;52.278;21.056;2022-12-20T03:44:44;34.30;;;17.60;;
67352;SDS011;54238;52.278;21.056;2022-12-20T03:47:14;38.30;;;18.60;;
67352;SDS011;54238;52.278;21.056;2022-12-20T03:49:40;38.80;;;17.60;;
67352;SDS011;54238;52.278;21.056;2022-12-20T03:52:11;35.70;;;17.90;;
67352;SDS011;54238;52.278;21.056;2022-12-20T03:54:44;39.50;;;17.30;;
67352;SDS011;54238;52.278;21.056;2022-12-20T03:57:11;37.10;;;17.20;;
67352;SDS011;54238;52.278;21.056;2022-12-20T03:59:38;39.70;;;17.00;;
67352;SDS011;54238;52.278;21.056;2022-12-20T04:02:05;32.80;;;16.30;;
67352;SDS011;54238;52.278;21.056;2022-12-20T04:04:32;34.10;;;17.00;;
67352;SDS011;54238;52.278;21.056;2022-12-20T04:07:02;23.60;;;12.50;;
67352;SDS011;54238;52.278;21.056;2022-12-20T04:09:33;37.20;;;17.80;;
67352;SDS011;54238;52.278;21.056;2022-12-20T04:12:00;21.70;;;11.90;;
67352;SDS011;54238;52.278;21.056;2022-12-20T04:14:33;37.30;;;17.10;;
67352;SDS011;54238;52.278;21.056;2022-12-20T04:17:11;26.40;;;12.60;;
67352;SDS011;54238;52.278;21.056;2022-12-20T04:19:38;32.90;;;16.80;;
67352;SDS011;54238;52.278;21.056;2022-12-20T04:22:10;30.70;;;14.60;;
67352;SDS011;54238;52.278;21.056;2022-12-20T04:24:42;30.50;;;14.10;;
67352;SDS011;54238;52.278;21.056;2022-12-20T04:27:14;30.10;;;15.90;;
67352;SDS011;54238;52.278;21.056;2022-12-20T04:29:46;33.60;;;16.10;;
67352;SDS011;54238;52.278;21.056;2022-12-20T04:32:23;32.50;;;15.70;;
67352;SDS011;54238;52.278;21.056;2022-12-20T04:34:52;33.10;;;15.20;;
67352;SDS011;54238;52.278;21.056;2022-12-20T04:37:22;22.00;;;11.00;;
67352;SDS011;54238;52.278;21.056;2022-12-20T04:39:49;30.50;;;14.80;;
67352;SDS011;54238;52.278;21.056;2022-12-20T04:42:19;31.10;;;14.90;;
67352;SDS011;54238;52.278;21.056;2022-12-20T04:44:49;29.20;;;14.70;;
67352;SDS011;54238;52.278;21.056;2022-12-20T04:47:19;29.40;;;14.10;;
67352;SDS011;54238;52.278;21.056;2022-12-20T04:49:49;28.60;;;13.70;;
67352;SDS011;54238;52.278;21.056;2022-12-20T04:52:21;32.10;;;15.70;;
67352;SDS011;54238;52.278;21.056;2022-12-20T04:55:10;33.40;;;15.20;;
67352;SDS011;54238;52.278;21.056;2022-12-20T04:57:39;28.90;;;14.30;;
67352;SDS011;54238;52.278;21.056;2022-12-20T05:00:07;35.40;;;16.60;;
67352;SDS011;54238;52.278;21.056;2022-12-20T05:02:36;23.40;;;12.10;;
67352;SDS011;54238;52.278;21.056;2022-12-20T05:05:06;23.90;;;11.10;;
67352;SDS011;54238;52.278;21.056;2022-12-20T05:07:35;31.60;;;15.20;;
67352;SDS011;54238;52.278;21.056;2022-12-20T05:10:07;36.10;;;15.90;;
67352;SDS011;54238;52.278;21.056;2022-12-20T05:12:39;35.70;;;17.60;;
67352;SDS011;54238;52.278;21.056;2022-12-20T05:15:34;32.40;;;14.40;;
67352;SDS011;54238;52.278;21.056;2022-12-20T05:18:03;27.70;;;12.40;;
67352;SDS011;54238;52.278;21.056;2022-12-20T05:20:32;34.70;;;17.20;;
67352;SDS011;54238;52.278;21.056;2022-12-20T05:23:00;31.50;;;15.90;;
67352;SDS011;54238;52.278;21.056;2022-12-20T05:25:53;31.50;;;13.70;;
67352;SDS011;54238;52.278;21.056;2022-12-20T05:28:45;33.90;;;16.30;;
67352;SDS011;54238;52.278;21.056;2022-12-20T05:31:14;38.80;;;17.20;;
67352;SDS011;54238;52.278;21.056;2022-12-20T05:33:42;29.20;;;14.40;;
67352;SDS011;54238;52.278;21.056;2022-12-20T05:36:09;36.80;;;16.40;;
67352;SDS011;54238;52.278;21.056;2022-12-20T05:38:39;31.10;;;16.20;;
67352;SDS011;54238;52.278;21.056;2022-12-20T05:41:08;29.50;;;14.00;;
67352;SDS011;54238;52.278;21.056;2022-12-20T05:43:35;32.10;;;15.40;;
67352;SDS011;54238;52.278;21.056;2022-12-20T05:46:10;36.50;;;17.00;;
67352;SDS011;54238;52.278;21.056;2022-12-20T05:48:37;26.60;;;13.70;;
67352;SDS011;54238;52.278;21.056;2022-12-20T05:51:05;20.90;;;11.40;;
67352;SDS011;54238;52.278;21.056;2022-12-20T05:53:40;29.30;;;13.90;;
67352;SDS011;54238;52.278;21.056;2022-12-20T05:56:11;31.80;;;15.10;;
67352;SDS011;54238;52.278;21.056;2022-12-20T05:58:40;35.10;;;16.30;;
67352;SDS011;54238;52.278;21.056;2022-12-20T06:01:11;27.60;;;14.90;;
67352;SDS011;54238;52.278;21.056;2022-12-20T06:03:43;27.70;;;12.90;;
67352;SDS011;54238;52.278;21.056;2022-12-20T06:06:11;33.30;;;15.90;;
67352;SDS011;54238;52.278;21.056;2022-12-20T06:08:41;33.40;;;16.10;;
67352;SDS011;54238;52.278;21.056;2022-12-20T06:11:10;28.00;;;14.80;;
67352;SDS011;54238;52.278;21.056;2022-12-20T06:13:42;34.90;;;16.10;;
67352;SDS011;54238;52.278;21.056;2022-12-20T06:16:13;28.90;;;15.50;;
67352;SDS011;54238;52.278;21.056;2022-12-20T06:18:45;32.70;;;14.20;;
67352;SDS011;54238;52.278;21.056;2022-12-20T06:21:16;31.00;;;15.10;;
67352;SDS011;54238;52.278;21.056;2022-12-20T06:23:46;28.80;;;14.30;;
67352;SDS011;54238;52.278;21.056;2022-12-20T06:26:15;22.70;;;10.90;;
67352;SDS011;54238;52.278;21.056;2022-12-20T06:28:42;27.50;;;14.40;;
67352;SDS011;54238;52.278;21.056;2022-12-20T06:31:09;36.50;;;15.50;;
67352;SDS011;54238;52.278;21.056;2022-12-20T06:33:39;32.90;;;13.90;;
67352;SDS011;54238;52.278;21.056;2022-12-20T06:36:09;35.10;;;15.10;;
67352;SDS011;54238;52.278;21.056;2022-12-20T06:38:36;26.70;;;12.00;;
67352;SDS011;54238;52.278;21.056;2022-12-20T06:41:03;29.40;;;14.20;;
67352;SDS011;54238;52.278;21.056;2022-12-20T06:43:33;30.70;;;12.90;;
67352;SDS011;54238;52.278;21.056;2022-12-20T06:46:00;35.20;;;16.40;;
67352;SDS011;54238;52.278;21.056;2022-12-20T06:48:28;35.70;;;15.10;;
67352;SDS011;54238;52.278;21.056;2022-12-20T06:50:55;37.50;;;14.80;;
67352;SDS011;54238;52.278;21.056;2022-12-20T06:53:22;31.90;;;16.80;;
67352;SDS011;54238;52.278;21.056;2022-12-20T06:55:54;35.40;;;17.20;;
67352;SDS011;54238;52.278;21.056;2022-12-20T06:58:23;38.00;;;16.20;;
67352;SDS011;54238;52.278;21.056;2022-12-20T07:00:50;44.00;;;15.70;;
67352;SDS011;54238;52.278;21.056;2022-12-20T07:03:17;30.70;;;13.90;;
67352;SDS011;54238;52.278;21.056;2022-12-20T07:05:53;32.00;;;14.90;;
67352;SDS011;54238;52.278;21.056;2022-12-20T07:08:30;36.00;;;15.30;;
67352;SDS011;54238;52.278;21.056;2022-12-20T07:11:07;26.00;;;11.80;;
67352;SDS011;54238;52.278;21.056;2022-12-20T07:13:34;30.40;;;14.50;;
67352;SDS011;54238;52.278;21.056;2022-12-20T07:16:02;32.50;;;14.30;;
67352;SDS011;54238;52.278;21.056;2022-12-20T07:18:30;35.80;;;14.80;;
67352;SDS011;54238;52.278;21.056;2022-12-20T07:21:03;30.00;;;12.70;;
67352;SDS011;54238;52.278;21.056;2022-12-20T07:23:33;24.00;;;11.60;;
67352;SDS011;54238;52.278;21.056;2022-12-20T07:26:02;33.20;;;16.30;;
67352;SDS011;54238;52.278;21.056;2022-12-20T07:28:30;32.80;;;14.70;;
67352;SDS011;54238;52.278;21.056;2022-12-20T07:31:05;29.00;;;14.40;;
67352;SDS011;54238;52.278;21.056;2022-12-20T07:33:37;33.60;;;14.40;;
67352;SDS011;54238;52.278;21.056;2022-12-20T07:36:10;34.70;;;15.60;;
67352;SDS011;54238;52.278;21.056;2022-12-20T07:38:46;31.20;;;14.70;;
67352;SDS011;54238;52.278;21.056;2022-12-20T07:41:16;30.20;;;13.60;;
67352;SDS011;54238;52.278;21.056;2022-12-20T07:43:46;33.50;;;15.80;;
67352;SDS011;54238;52.278;21.056;2022-12-20T07:46:17;29.60;;;14.20;;
67352;SDS011;54238;52.278;21.056;2022-12-20T07:48:47;28.10;;;14.80;;
67352;SDS011;54238;52.278;21.056;2022-12-20T07:51:30;31.40;;;14.40;;
67352;SDS011;54238;52.278;21.056;2022-12-20T07:56:47;32.90;;;15.10;;
67352;SDS011;54238;52.278;21.056;2022-12-20T07:59:26;33.70;;;15.20;;
67352;SDS011;54238;52.278;21.056;2022-12-20T08:02:17;29.80;;;15.00;;
67352;SDS011;54238;52.278;21.056;2022-12-20T08:04:54;26.90;;;12.80;;
67352;SDS011;54238;52.278;21.056;2022-12-20T08:07:29;26.80;;;14.50;;
67352;SDS011;54238;52.278;21.056;2022-12-20T08:10:00;25.80;;;13.80;;
67352;SDS011;54238;52.278;21.056;2022-12-20T08:12:32;38.50;;;16.10;;
67352;SDS011;54238;52.278;21.056;2022-12-20T08:15:01;24.20;;;13.00;;
67352;SDS011;54238;52.278;21.056;2022-12-20T08:17:31;30.10;;;14.10;;
67352;SDS011;54238;52.278;21.056;2022-12-20T08:19:58;27.70;;;12.70;;
67352;SDS011;54238;52.278;21.056;2022-12-20T08:22:28;33.30;;;13.50;;
67352;SDS011;54238;52.278;21.056;2022-12-20T08:24:55;24.10;;;13.00;;
67352;SDS011;54238;52.278;21.056;2022-12-20T08:27:25;28.00;;;14.50;;
67352;SDS011;54238;52.278;21.056;2022-12-20T08:29:59;29.70;;;13.60;;
67352;SDS011;54238;52.278;21.056;2022-12-20T08:35:02;32.70;;;15.70;;
67352;SDS011;54238;52.278;21.056;2022-12-20T08:37:33;29.80;;;15.80;;
67352;SDS011;54238;52.278;21.056;2022-12-20T08:40:00;29.40;;;13.30;;
67352;SDS011;54238;52.278;21.056;2022-12-20T08:42:28;28.30;;;14.30;;
67352;SDS011;54238;52.278;21.056;2022-12-20T08:44:58;30.10;;;13.20;;
67352;SDS011;54238;52.278;21.056;2022-12-20T08:47:29;33.30;;;14.80;;
67352;SDS011;54238;52.278;21.056;2022-12-20T08:50:01;35.60;;;16.80;;
67352;SDS011;54238;52.278;21.056;2022-12-20T08:52:30;32.60;;;15.40;;
67352;SDS011;54238;52.278;21.056;2022-12-20T08:55:00;29.40;;;12.80;;
67352;SDS011;54238;52.278;21.056;2022-12-20T08:57:27;33.10;;;13.70;;
67352;SDS011;54238;52.278;21.056;2022-12-20T08:59:58;24.10;;;13.80;;
67352;SDS011;54238;52.278;21.056;2022-12-20T09:02:25;39.00;;;16.50;;
67352;SDS011;54238;52.278;21.056;2022-12-20T09:04:59;31.70;;;15.70;;
67352;SDS011;54238;52.278;21.056;2022-12-20T09:07:27;35.60;;;17.00;;
67352;SDS011;54238;52.278;21.056;2022-12-20T09:09:56;40.60;;;18.50;;
67352;SDS011;54238;52.278;21.056;2022-12-20T09:12:25;36.10;;;16.80;;
67352;SDS011;54238;52.278;21.056;2022-12-20T09:14:55;37.80;;;18.00;;
67352;SDS011;54238;52.278;21.056;2022-12-20T09:17:24;28.40;;;13.20;;
67352;SDS011;54238;52.278;21.056;2022-12-20T09:19:56;30.10;;;14.90;;
67352;SDS011;54238;52.278;21.056;2022-12-20T09:22:29;39.10;;;16.50;;
67352;SDS011;54238;52.278;21.056;2022-12-20T09:24:57;33.50;;;16.30;;
67352;SDS011;54238;52.278;21.056;2022-12-20T09:27:26;41.30;;;18.20;;
67352;SDS011;54238;52.278;21.056;2022-12-20T09:30:01;32.90;;;15.90;;
67352;SDS011;54238;52.278;21.056;2022-12-20T09:32:28;33.30;;;17.60;;
67352;SDS011;54238;52.278;21.056;2022-12-20T09:34:58;38.00;;;16.60;;
67352;SDS011;54238;52.278;21.056;2022-12-20T09:37:32;35.10;;;16.00;;
67352;SDS011;54238;52.278;21.056;2022-12-20T09:40:01;33.70;;;17.00;;
67352;SDS011;54238;52.278;21.056;2022-12-20T09:42:29;31.30;;;15.60;;
67352;SDS011;54238;52.278;21.056;2022-12-20T09:45:08;38.60;;;18.60;;
67352;SDS011;54238;52.278;21.056;2022-12-20T09:47:46;37.60;;;19.00;;
67352;SDS011;54238;52.278;21.056;2022-12-20T09:50:15;38.20;;;18.00;;
67352;SDS011;54238;52.278;21.056;2022-12-20T09:56:25;41.10;;;18.70;;
67352;SDS011;54238;52.278;21.056;2022-12-20T10:01:43;44.40;;;19.40;;
67352;SDS011;54238;52.278;21.056;2022-12-20T10:04:22;35.00;;;17.70;;
67352;SDS011;54238;52.278;21.056;2022-12-20T10:16:07;31.80;;;16.30;;
67352;SDS011;54238;52.278;21.056;2022-12-20T10:22:15;34.90;;;17.90;;
67352;SDS011;54238;52.278;21.056;2022-12-20T10:27:48;34.90;;;19.00;;
67352;SDS011;54238;52.278;21.056;2022-12-20T10:30:22;31.40;;;17.00;;
67352;SDS011;54238;52.278;21.056;2022-12-20T10:32:54;39.70;;;19.50;;
67352;SDS011;54238;52.278;21.056;2022-12-20T10:38:13;32.00;;;19.10;;
67352;SDS011;54238;52.278;21.056;2022-12-20T10:43:24;35.50;;;18.20;;
67352;SDS011;54238;52.278;21.056;2022-12-20T10:46:01;37.70;;;19.20;;
67352;SDS011;54238;52.278;21.056;2022-12-20T10:53:52;35.40;;;19.20;;
67352;SDS011;54238;52.278;21.056;2022-12-20T10:56:31;42.10;;;21.40;;
67352;SDS011;54238;52.278;21.056;2022-12-20T10:59:47;38.20;;;20.60;;
67352;SDS011;54238;52.278;21.056;2022-12-20T11:01:55;39.60;;;20.40;;
67352;SDS011;54238;52.278;21.056;2022-12-20T11:06:56;29.60;;;15.50;;
67352;SDS011;54238;52.278;21.056;2022-12-20T11:14:43;41.00;;;20.50;;
67352;SDS011;54238;52.278;21.056;2022-12-20T11:25:35;44.40;;;21.70;;
67352;SDS011;54238;52.278;21.056;2022-12-20T11:49:00;39.10;;;19.20;;
67352;SDS011;54238;52.278;21.056;2022-12-20T11:51:53;30.60;;;16.10;;
67352;SDS011;54238;52.278;21.056;2022-12-20T11:54:37;40.60;;;18.90;;
67352;SDS011;54238;52.278;21.056;2022-12-20T12:00:04;29.20;;;15.20;;
67352;SDS011;54238;52.278;21.056;2022-12-20T12:02:47;37.70;;;20.80;;
67352;SDS011;54238;52.278;21.056;2022-12-20T12:05:27;32.50;;;17.80;;
67352;SDS011;54238;52.278;21.056;2022-12-20T12:08:06;38.20;;;18.20;;
67352;SDS011;54238;52.278;21.056;2022-12-20T12:10:49;39.50;;;21.10;;
67352;SDS011;54238;52.278;21.056;2022-12-20T12:13:35;39.40;;;20.80;;
67352;SDS011;54238;52.278;21.056;2022-12-20T12:16:34;37.20;;;18.70;;
67352;SDS011;54238;52.278;21.056;2022-12-20T12:19:11;33.20;;;18.80;;
67352;SDS011;54238;52.278;21.056;2022-12-20T12:21:49;42.20;;;21.20;;
67352;SDS011;54238;52.278;21.056;2022-12-20T12:24:30;36.20;;;18.60;;
67352;SDS011;54238;52.278;21.056;2022-12-20T12:27:14;39.60;;;20.70;;
67352;SDS011;54238;52.278;21.056;2022-12-20T12:29:53;36.30;;;20.80;;
67352;SDS011;54238;52.278;21.056;2022-12-20T12:32:38;38.10;;;20.60;;
67352;SDS011;54238;52.278;21.056;2022-12-20T12:35:37;38.60;;;20.80;;
67352;SDS011;54238;52.278;21.056;2022-12-20T12:41:12;41.80;;;20.70;;
67352;SDS011;54238;52.278;21.056;2022-12-20T12:50:34;36.50;;;19.40;;
67352;SDS011;54238;52.278;21.056;2022-12-20T12:56:52;33.20;;;17.20;;
67352;SDS011;54238;52.278;21.056;2022-12-20T13:17:59;36.70;;;19.60;;
67352;SDS011;54238;52.278;21.056;2022-12-20T13:20:33;42.00;;;19.30;;
67352;SDS011;54238;52.278;21.056;2022-12-20T13:33:46;43.90;;;20.90;;
67352;SDS011;54238;52.278;21.056;2022-12-20T13:41:23;46.30;;;22.50;;
67352;SDS011;54238;52.278;21.056;2022-12-20T13:44:07;46.90;;;22.70;;
67352;SDS011;54238;52.278;21.056;2022-12-20T13:49:25;43.00;;;22.60;;
67352;SDS011;54238;52.278;21.056;2022-12-20T13:54:42;41.40;;;20.20;;
67352;SDS011;54238;52.278;21.056;2022-12-20T13:57:16;40.70;;;19.60;;
67352;SDS011;54238;52.278;21.056;2022-12-20T13:59:54;45.30;;;19.70;;
67352;SDS011;54238;52.278;21.056;2022-12-20T14:02:32;46.20;;;22.70;;
67352;SDS011;54238;52.278;21.056;2022-12-20T14:05:06;47.60;;;22.70;;
67352;SDS011;54238;52.278;21.056;2022-12-20T14:07:46;43.30;;;22.40;;
67352;SDS011;54238;52.278;21.056;2022-12-20T14:10:22;54.50;;;24.40;;
67352;SDS011;54238;52.278;21.056;2022-12-20T14:12:52;35.90;;;18.50;;
67352;SDS011;54238;52.278;21.056;2022-12-20T14:15:30;40.90;;;20.70;;
67352;SDS011;54238;52.278;21.056;2022-12-20T14:18:21;45.80;;;22.10;;
67352;SDS011;54238;52.278;21.056;2022-12-20T14:20:55;41.10;;;19.70;;
67352;SDS011;54238;52.278;21.056;2022-12-20T14:23:39;44.30;;;19.90;;
67352;SDS011;54238;52.278;21.056;2022-12-20T14:26:14;39.50;;;20.40;;
67352;SDS011;54238;52.278;21.056;2022-12-20T14:28:52;46.00;;;23.00;;
67352;SDS011;54238;52.278;21.056;2022-12-20T14:36:48;48.40;;;23.20;;
67352;SDS011;54238;52.278;21.056;2022-12-20T14:44:29;46.80;;;23.30;;
67352;SDS011;54238;52.278;21.056;2022-12-20T14:46:59;57.40;;;23.90;;
67352;SDS011;54238;52.278;21.056;2022-12-20T14:49:33;44.20;;;21.60;;
67352;SDS011;54238;52.278;21.056;2022-12-20T15:03:09;48.80;;;21.40;;
67352;SDS011;54238;52.278;21.056;2022-12-20T15:05:48;51.50;;;25.60;;
67352;SDS011;54238;52.278;21.056;2022-12-20T15:08:28;47.70;;;22.70;;
67352;SDS011;54238;52.278;21.056;2022-12-20T15:13:44;38.60;;;21.30;;
67352;SDS011;54238;52.278;21.056;2022-12-20T15:16:16;46.10;;;23.70;;
67352;SDS011;54238;52.278;21.056;2022-12-20T15:18:46;45.60;;;22.60;;
67352;SDS011;54238;52.278;21.056;2022-12-20T15:21:32;49.40;;;24.20;;
67352;SDS011;54238;52.278;21.056;2022-12-20T15:24:13;46.80;;;22.60;;
67352;SDS011;54238;52.278;21.056;2022-12-20T15:26:44;46.30;;;23.00;;
67352;SDS011;54238;52.278;21.056;2022-12-20T15:29:25;43.10;;;19.50;;
67352;SDS011;54238;52.278;21.056;2022-12-20T15:32:14;45.20;;;21.80;;
67352;SDS011;54238;52.278;21.056;2022-12-20T15:34:48;39.10;;;19.80;;
67352;SDS011;54238;52.278;21.056;2022-12-20T15:37:15;47.60;;;22.30;;
67352;SDS011;54238;52.278;21.056;2022-12-20T15:39:50;36.90;;;18.80;;
67352;SDS011;54238;52.278;21.056;2022-12-20T15:42:18;51.80;;;23.40;;
67352;SDS011;54238;52.278;21.056;2022-12-20T15:44:49;33.90;;;17.10;;
67352;SDS011;54238;52.278;21.056;2022-12-20T15:47:16;50.00;;;23.60;;
67352;SDS011;54238;52.278;21.056;2022-12-20T15:49:46;38.00;;;18.30;;
67352;SDS011;54238;52.278;21.056;2022-12-20T15:52:23;48.70;;;22.90;;
67352;SDS011;54238;52.278;21.056;2022-12-20T15:54:52;51.90;;;24.60;;
67352;SDS011;54238;52.278;21.056;2022-12-20T15:57:24;42.20;;;21.50;;
67352;SDS011;54238;52.278;21.056;2022-12-20T15:59:54;44.30;;;20.60;;
67352;SDS011;54238;52.278;21.056;2022-12-20T16:02:26;40.80;;;19.40;;
67352;SDS011;54238;52.278;21.056;2022-12-20T16:04:59;43.60;;;21.10;;
67352;SDS011;54238;52.278;21.056;2022-12-20T16:07:29;47.60;;;24.20;;
67352;SDS011;54238;52.278;21.056;2022-12-20T16:10:24;45.80;;;24.00;;
67352;SDS011;54238;52.278;21.056;2022-12-20T16:12:53;46.00;;;22.00;;
67352;SDS011;54238;52.278;21.056;2022-12-20T16:15:23;51.50;;;24.40;;
67352;SDS011;54238;52.278;21.056;2022-12-20T16:17:52;46.00;;;20.80;;
67352;SDS011;54238;52.278;21.056;2022-12-20T16:20:25;51.70;;;24.30;;
67352;SDS011;54238;52.278;21.056;2022-12-20T16:22:55;50.20;;;23.00;;
67352;SDS011;54238;52.278;21.056;2022-12-20T16:25:49;48.20;;;23.40;;
67352;SDS011;54238;52.278;21.056;2022-12-20T16:28:22;48.60;;;23.30;;
67352;SDS011;54238;52.278;21.056;2022-12-20T16:30:54;42.20;;;20.20;;
67352;SDS011;54238;52.278;21.056;2022-12-20T16:33:21;48.70;;;21.10;;
67352;SDS011;54238;52.278;21.056;2022-12-20T16:35:58;48.20;;;23.20;;
67352;SDS011;54238;52.278;21.056;2022-12-20T16:38:33;47.70;;;22.30;;
67352;SDS011;54238;52.278;21.056;2022-12-20T16:41:17;52.20;;;25.50;;
67352;SDS011;54238;52.278;21.056;2022-12-20T16:43:53;42.00;;;20.00;;
67352;SDS011;54238;52.278;21.056;2022-12-20T16:46:23;50.20;;;23.60;;
67352;SDS011;54238;52.278;21.056;2022-12-20T16:48:53;42.80;;;20.90;;
67352;SDS011;54238;52.278;21.056;2022-12-20T16:51:23;50.40;;;24.30;;
67352;SDS011;54238;52.278;21.056;2022-12-20T16:54:06;51.40;;;24.10;;
67352;SDS011;54238;52.278;21.056;2022-12-20T16:56:42;45.30;;;21.40;;
67352;SDS011;54238;52.278;21.056;2022-12-20T16:59:16;48.80;;;22.80;;
67352;SDS011;54238;52.278;21.056;2022-12-20T17:01:44;53.40;;;24.00;;
67352;SDS011;54238;52.278;21.056;2022-12-20T17:04:14;46.40;;;24.00;;
67352;SDS011;54238;52.278;21.056;2022-12-20T17:06:43;49.50;;;23.90;;
67352;SDS011;54238;52.278;21.056;2022-12-20T17:09:13;53.90;;;24.20;;
67352;SDS011;54238;52.278;21.056;2022-12-20T17:14:23;41.50;;;19.80;;
67352;SDS011;54238;52.278;21.056;2022-12-20T17:16:50;38.60;;;19.70;;
67352;SDS011;54238;52.278;21.056;2022-12-20T17:19:17;41.70;;;21.80;;
67352;SDS011;54238;52.278;21.056;2022-12-20T17:21:49;45.30;;;22.80;;
67352;SDS011;54238;52.278;21.056;2022-12-20T17:24:29;52.20;;;23.50;;
67352;SDS011;54238;52.278;21.056;2022-12-20T17:27:01;33.60;;;17.10;;
67352;SDS011;54238;52.278;21.056;2022-12-20T17:29:31;45.60;;;23.30;;
67352;SDS011;54238;52.278;21.056;2022-12-20T17:32:00;46.40;;;22.10;;
67352;SDS011;54238;52.278;21.056;2022-12-20T17:34:29;47.20;;;22.40;;
67352;SDS011;54238;52.278;21.056;2022-12-20T17:36:57;46.70;;;24.00;;
67352;SDS011;54238;52.278;21.056;2022-12-20T17:39:29;37.00;;;19.80;;
67352;SDS011;54238;52.278;21.056;2022-12-20T17:42:01;47.40;;;22.00;;
67352;SDS011;54238;52.278;21.056;2022-12-20T17:44:31;43.90;;;23.50;;